Detall de PIREP

Printer-friendly versionPDF version

[2010/09/02 08:30:00]
Flight IATA:CT3405
Pilot Number:011
Company ICAO:CAT
Aircraft Type:B738/F
PAX:160
Departing Airport: GCLP
Destination Airport: LEBL
Alternate Airport:LEPA
Online: VATSIM
Route:KORAL UN871 NIRAL DCT OSDAM UB28 BARPA UM985 SOPET UN609 MATEX
Flight Level:FL340
No Slew and time accel
No pause
Crash detect
Detect pilot in Cockpit between each 30 and 45 minutes
08:30 Zero fuel Weight: 132500 Lbs, Fuel Weight: 27636 Lbs
08:30 VATSIM:GCLP 020800Z 01016KT 9999 FEW025 24/19 Q1014 NOSIG
08:30 VATSIM:LEBL 020800Z 11008KT 080V150 9999 FEW030 SCT055 25/16 Q1012 NOSIG
08:31 Parking Brakes off
08:41 Take-off
08:41 Take off Weight: 159204 Lbs
08:41 Wind: 018º @ 016 Knots Heading: 200º
08:41 POS N27º 55´ 48´´ W015º 23´ 06´´
08:41 Flaps:4 at 157 Knots
08:41 Gear Up: 159 Knots
08:42 Flaps:3 at 175 Knots
08:42 Flaps:2 at 172 Knots
08:43 Flaps:1 at 175 Knots
08:43 Flaps:0 at 177 Knots
08:56 Wind:025º@052 Knots Heading: 056º Ground Speed: 322 Knots Altitude 33700 ft
08:56 TOC
08:56 Fuel Weight: 23434 Lb
09:11 Wind:039º@044 Knots Heading: 055º Ground Speed: 423 Knots Altitude 34019 ft
09:26 Wind:003º@018 Knots Heading: 051º Ground Speed: 446 Knots Altitude 33992 ft
09:41 Wind:258º@015 Knots Heading: 046º Ground Speed: 485 Knots Altitude 33976 ft
09:56 Wind:010º@019 Knots Heading: 031º Ground Speed: 458 Knots Altitude 33999 ft
10:11 Wind:312º@016 Knots Heading: 032º Ground Speed: 470 Knots Altitude 34009 ft
10:26 Wind:203º@035 Knots Heading: 062º Ground Speed: 504 Knots Altitude 33963 ft
10:41 Wind:200º@011 Knots Heading: 045º Ground Speed: 486 Knots Altitude 34038 ft
10:56 Wind:138º@027 Knots Heading: 055º Ground Speed: 472 Knots Altitude 34081 ft
11:10 TOD
11:10 Fuel Weight: 11438 Lb
11:11 Wind:328º@028 Knots Heading: 016º Ground Speed: 431 Knots Altitude 32762 ft
11:26 Wind:097º@010 Knots Heading: 076º Ground Speed: 319 Knots Altitude 10836 ft
11:32 Flaps:1 at 269 Knots
11:32 Flaps:2 at 262 Knots
11:32 Flaps:3 at 256 Knots
11:33 Flaps:4 at 225 Knots
11:34 Flaps:5 at 208 Knots
11:34 Gear Down: 209 Knots
11:34 Flaps:6 at 195 Knots
11:34 Flaps:7 at 188 Knots
11:35 Flaps:8 at 157 Knots
11:37 TouchDown:Rate -152 ft/min Speed: 114 Knots
11:38 VATSIM:LEBL 021100Z 13006KT 080V190 9999 FEW030 25/16 Q1014 NOSIG
11:38 Land
11:38 Wind:134º@006 Knots
11:38 Heading: 065º
11:38 Flight Duration: 02:57
11:38 Landing Weight: 142682 Lbs
11:38 POS N41º 18´ 03´´ E002º 05´ 23´´
11:43 Parking brakes on
11:43 Block to Block Duration: 03:12
11:43 Final Fuel: 9742 Lbls
11:43 Spent Fuel: 17894 Lbls
11:43 Flight Length: 1141 NM
11:43 TOD Land Length: 110 NM

Exportar CSV

Powered by Drupal - Modified by Danger4k